Time;durP1;ratioP1;P1;durP2;ratioP2;P2;SDS_P1;SDS_P2;PMS_P1;PMS_P2;Temp;Humidity;BMP_temperature;BMP_pressure;BME280_temperature;BME280_humidity;BME280_pressure;Samples;Min_cycle;Max_cycle;Signal;HPM_P1;HPM_P2
2023/10/01 00:00:15;;;;;;;15.52;8.05;;;8.60;99.90;;;-144.05;80.96;56963.53;5050177;28;20034;-83
2023/10/01 00:02:42;;;;;;;12.38;7.20;;;;;;;-144.05;81.04;56940.16;5038193;28;20107;-83
2023/10/01 00:05:10;;;;;;;11.68;7.90;;;15.50;99.90;;;-144.05;81.53;56933.78;5055840;28;20045;-85
2023/10/01 00:07:37;;;;;;;11.10;7.03;;;;;;;-144.05;81.86;56944.41;5054655;28;20190;-83
2023/10/01 00:10:10;;;;;;;13.27;7.47;;;12.00;99.90;;;-144.05;81.45;56963.53;5030953;28;20084;-83
2023/10/01 00:12:58;;;;;;;15.82;7.57;;;8.20;99.90;;;-144.05;81.20;56931.66;5013820;28;20030;-82
2023/10/01 00:15:26;;;;;;;16.20;7.32;;;15.80;99.90;;;-144.05;80.80;56959.28;5013875;28;20494;-82
2023/10/01 00:17:53;;;;;;;13.20;8.00;;;15.70;99.90;;;-144.05;80.47;56921.06;5031669;28;20079;-82
2023/10/01 00:20:25;;;;;;;14.90;7.70;;;12.20;99.90;;;-144.05;80.59;56946.53;5013967;28;20103;-80
2023/10/01 00:23:03;;;;;;;13.57;7.55;;;12.20;99.90;;;-144.05;80.29;56950.78;5031585;28;20487;-82
2023/10/01 00:25:31;;;;;;;12.77;6.65;;;13.10;99.90;;;-144.05;80.15;56942.28;5031635;28;20065;-82
2023/10/01 00:27:58;;;;;;;12.05;6.88;;;15.90;99.90;;;-144.05;80.63;56950.78;5013792;28;20040;-81
2023/10/01 00:30:25;;;;;;;10.75;6.90;;;;;;;-144.05;81.09;56944.41;5011362;28;20459;-83
2023/10/01 00:32:52;;;;;;;13.18;7.05;;;;;;;-144.05;80.15;56938.03;5013872;28;20033;-82
2023/10/01 00:35:18;;;;;;;12.68;6.05;;;;;;;-144.05;79.72;56950.78;5013977;28;20029;-82
2023/10/01 00:37:44;;;;;;;10.20;5.85;;;;;;;-144.05;79.46;56957.16;5010967;28;20048;-83
2023/10/01 00:40:11;;;;;;;11.63;5.95;;;8.80;99.90;;;-144.05;79.23;56935.91;5031080;28;20310;-83
2023/10/01 00:42:39;;;;;;;10.02;5.25;;;8.60;99.90;;;-144.05;79.28;56942.28;5031332;28;20407;-82
2023/10/01 00:45:11;;;;;;;9.57;6.05;;;15.60;99.90;;;-144.05;79.03;56967.78;5031386;28;20020;-83
2023/10/01 00:47:40;;;;;;;16.77;6.75;;;8.70;99.90;;;-144.05;79.00;56969.91;5031454;28;20144;-82
2023/10/01 00:50:21;;;;;;;10.05;6.13;;;12.30;99.90;;;-144.05;79.00;56931.66;5026399;28;20029;-82
2023/10/01 00:52:52;;;;;;;11.40;5.40;;;;;;;-144.05;79.17;56946.53;5031457;28;20029;-83
2023/10/01 00:55:20;;;;;;;10.73;5.40;;;15.30;99.90;;;-144.05;78.97;56942.28;5013594;28;20040;-83
2023/10/01 00:57:49;;;;;;;10.88;5.72;;;;;;;-144.05;78.95;56935.91;5029061;28;20029;-81
2023/10/01 01:00:18;;;;;;;9.85;6.07;;;12.40;99.90;;;-144.05;78.56;56923.19;5014003;28;20037;-83
2023/10/01 01:02:58;;;;;;;12.45;5.60;;;12.50;99.90;;;-144.05;78.36;56946.53;5031265;28;20037;-82
2023/10/01 01:05:34;;;;;;;12.82;5.68;;;15.60;99.90;;;-144.05;78.23;56955.03;5013846;28;20021;-81
2023/10/01 01:08:22;;;;;;;10.50;5.80;;;15.90;99.90;;;-144.05;78.19;56940.16;5031750;28;20033;-82
2023/10/01 01:10:53;;;;;;;12.27;5.38;;;12.40;99.90;;;-144.05;78.02;56931.66;5028971;28;20486;-83
2023/10/01 01:13:23;;;;;;;11.85;5.20;;;15.40;99.90;;;-144.05;78.13;56946.53;5030907;28;20625;-83
2023/10/01 01:15:52;;;;;;;12.30;5.60;;;;;;;-144.05;77.84;56942.28;5029989;28;20025;-83
2023/10/01 01:18:20;;;;;;;10.50;5.07;;;;;;;-144.05;77.77;56955.03;5013627;28;20029;-81
2023/10/01 01:20:48;;;;;;;10.45;5.30;;;16.00;99.90;;;-144.05;77.66;56938.03;5028478;28;20037;-83
2023/10/01 01:23:24;;;;;;;11.35;5.25;;;8.70;99.90;;;-144.05;77.49;56957.16;5030744;28;20116;-82
2023/10/01 01:25:54;;;;;;;9.70;5.25;;;12.60;99.90;;;-144.05;77.43;56946.53;5028539;28;20022;-81
2023/10/01 01:28:35;;;;;;;8.45;5.10;;;;;;;-144.05;77.23;56925.28;5029687;28;20028;-82
2023/10/01 01:31:04;;;;;;;8.90;5.07;;;12.70;99.90;;;-144.05;76.95;56918.94;5013013;28;20191;-83
2023/10/01 01:33:40;;;;;;;9.23;4.63;;;15.80;99.90;;;-144.05;76.69;56923.19;5012948;28;20048;-80
2023/10/01 01:36:14;;;;;;;11.77;5.28;;;12.60;99.90;;;-144.05;76.71;56925.28;5029398;28;20037;-82
2023/10/01 01:39:10;;;;;;;9.00;4.93;;;15.90;99.90;;;-144.05;76.40;56933.78;5030808;28;20025;-82
2023/10/01 01:41:42;;;;;;;8.82;5.85;;;15.70;99.90;;;-144.05;76.27;56942.28;5030677;28;20022;-82
2023/10/01 01:44:14;;;;;;;10.90;5.82;;;9.50;99.90;;;-144.05;76.00;56965.66;5030704;28;20095;-82
2023/10/01 01:46:47;;;;;;;14.82;6.13;;;;;;;-144.05;75.77;56935.91;5013081;28;20112;-81
2023/10/01 01:49:19;;;;;;;10.80;5.10;;;12.80;99.90;;;-144.05;75.97;56927.41;5012839;28;20029;-81
2023/10/01 01:52:03;;;;;;;8.73;5.07;;;15.90;99.90;;;-144.05;76.34;56952.91;5029008;28;20032;-82
2023/10/01 01:54:40;;;;;;;7.95;4.65;;;9.40;99.90;;;-144.05;76.54;56927.41;5034223;28;20029;-83
2023/10/01 01:57:13;;;;;;;9.85;5.15;;;;;;;-144.05;76.38;56944.41;5034337;28;20502;-82
2023/10/01 01:59:41;;;;;;;9.95;5.80;;;15.10;99.90;;;-144.05;76.78;56963.53;5034600;28;20040;-82
2023/10/01 02:02:09;;;;;;;9.05;5.03;;;;;;;-144.05;76.61;56933.78;5016383;28;20064;-82
2023/10/01 02:07:22;;;;;;;10.10;4.95;;;;;;;-144.05;76.86;56925.28;5031667;28;20060;-82
2023/10/01 02:09:49;;;;;;;8.00;4.65;;;;;;;-144.05;76.65;56938.03;5033923;28;20030;-83
2023/10/01 02:12:23;;;;;;;12.68;5.40;;;9.50;99.90;;;-144.05;76.74;56925.28;5016166;28;20056;-83
2023/10/01 02:14:54;;;;;;;12.73;4.82;;;9.10;99.90;;;-144.05;76.90;56942.28;5029898;28;20036;-83
2023/10/01 02:17:22;;;;;;;10.27;5.05;;;8.80;99.90;;;-144.05;76.67;56944.41;5033793;28;20022;-81
2023/10/01 02:19:49;;;;;;;8.38;4.93;;;;;;;-144.05;76.91;56938.03;5016082;28;20107;-82
2023/10/01 02:22:16;;;;;;;8.95;5.32;;;;;;;-144.05;77.15;56925.28;5016230;28;20030;-83
2023/10/01 02:24:54;;;;;;;6.97;4.63;;;15.50;99.90;;;-144.05;76.66;56963.53;5034578;28;20478;-83
2023/10/01 02:27:26;;;;;;;10.75;5.93;;;;;;;-144.05;77.11;56929.53;5033195;28;20044;-82
2023/10/01 02:32:49;;;;;;;9.13;5.45;;;;;;;-144.05;77.58;56942.28;5033928;28;20072;-82
2023/10/01 02:35:35;;;;;;;7.68;5.22;;;8.60;99.90;;;-144.05;77.28;56929.53;5034193;28;20057;-83
2023/10/01 02:40:57;;;;;;;7.55;4.32;;;15.50;99.90;;;-144.05;77.41;56942.28;5033930;28;20067;-83
2023/10/01 02:43:33;;;;;;;8.30;5.07;;;9.10;99.90;;;-144.05;77.59;56940.16;5016106;28;20152;-82
2023/10/01 02:46:12;;;;;;;8.45;4.60;;;15.80;99.90;;;-144.05;77.58;56940.16;5033749;28;20478;-82
2023/10/01 02:48:42;;;;;;;9.20;5.18;;;12.30;99.90;;;-144.05;77.64;56942.28;5015740;28;20036;-82
2023/10/01 02:51:15;;;;;;;8.18;5.28;;;;;;;-144.05;77.31;56914.69;5033959;28;20021;-82
2023/10/01 02:54:05;;;;;;;11.93;5.35;;;12.20;99.90;;;-144.05;77.59;56942.28;5034029;28;20025;-82
2023/10/01 02:56:52;;;;;;;8.90;5.20;;;8.90;99.90;;;-144.05;77.73;56921.06;5033776;28;20037;-83
2023/10/01 02:59:23;;;;;;;8.57;5.20;;;12.20;99.90;;;-144.05;77.51;56946.53;5030528;28;20025;-81
2023/10/01 03:01:49;;;;;;;8.48;4.90;;;16.00;99.90;;;-144.05;79.03;56925.28;5030436;28;20021;-82
2023/10/01 03:04:16;;;;;;;9.52;5.18;;;9.60;99.90;;;-144.05;80.44;56950.78;5033632;28;20033;-82
2023/10/01 03:06:55;;;;;;;10.90;5.05;;;15.70;99.90;;;-144.05;80.90;56961.41;5015829;28;20060;-82
2023/10/01 03:09:31;;;;;;;11.48;5.72;;;15.70;99.90;;;-144.05;80.91;56944.41;5034139;28;20025;-82
2023/10/01 03:12:24;;;;;;;13.93;5.70;;;13.50;99.90;;;-144.05;81.13;56950.78;5015879;28;20032;-83
2023/10/01 03:17:38;;;;;;;8.40;5.05;;;;;;;-144.05;80.99;56961.41;5032055;28;20324;-82
2023/10/01 03:21:04;;;;;;;11.50;4.97;;;15.60;99.90;;;-144.05;80.87;56940.16;5033317;28;20026;-83
2023/10/01 03:23:01;;;;;;;11.27;5.22;;;;;;;-144.05;80.60;56948.66;5030881;28;20449;-83
2023/10/01 03:25:40;;;;;;;9.65;4.50;;;15.90;99.90;;;-144.05;80.36;56925.28;5015056;28;20036;-82
2023/10/01 03:28:07;;;;;;;10.50;4.90;;;15.90;99.90;;;-144.05;80.23;56946.53;5033096;28;20029;-83
2023/10/01 03:30:33;;;;;;;9.82;4.60;;;;;;;-144.05;79.83;56935.91;5032767;28;20102;-82
2023/10/01 03:33:07;;;;;;;7.88;4.50;;;9.00;99.90;;;-144.05;79.69;56933.78;5032851;28;20029;-81
2023/10/01 03:35:37;;;;;;;12.98;4.90;;;13.20;99.90;;;-144.05;79.17;56938.03;5015047;28;20022;-82
2023/10/01 03:38:09;;;;;;;10.82;4.53;;;;;;;-144.05;78.37;56967.78;5032793;28;20029;-82
2023/10/01 03:43:31;;;;;;;10.63;4.63;;;8.70;99.90;;;-144.05;76.30;56931.66;5032612;28;20068;-82
2023/10/01 03:46:07;;;;;;;11.85;5.15;;;15.40;99.90;;;-144.05;76.49;56942.28;5032544;28;20053;-83
2023/10/01 03:51:28;;;;;;;11.32;4.75;;;15.80;99.90;;;-144.05;75.49;56918.94;5032555;28;20040;-82
2023/10/01 03:54:06;;;;;;;8.57;4.43;;;9.30;99.90;;;-144.05;75.57;56944.41;5014619;28;20029;-82
2023/10/01 03:56:36;;;;;;;7.75;4.43;;;16.00;99.90;;;-144.05;75.41;56955.03;5032210;28;20466;-81
2023/10/01 03:59:09;;;;;;;11.25;4.47;;;15.70;99.90;;;-144.05;75.25;56969.91;5014385;28;20036;-82
2023/10/01 04:01:58;;;;;;;8.65;4.65;;;15.80;99.90;;;-144.05;74.89;56948.66;5014412;28;20017;-82
2023/10/01 04:04:23;;;;;;;7.15;3.90;;;;;;;-144.05;74.64;56963.53;5032116;28;20108;-83
2023/10/01 04:06:52;;;;;;;8.15;3.75;;;;;;;-144.05;74.99;56933.78;5014516;28;20025;-83
2023/10/01 04:09:19;;;;;;;9.07;4.10;;;;;;;-144.05;74.63;56957.16;5032097;28;20036;-82
2023/10/01 04:11:51;;;;;;;8.38;4.53;;;;;;;-144.05;73.95;56925.28;5028244;28;20025;-81
2023/10/01 04:14:18;;;;;;;8.30;3.97;;;;;;;-144.05;74.24;56944.41;5031326;28;20041;-81
2023/10/01 04:16:48;;;;;;;10.77;4.38;;;12.90;99.90;;;-144.05;73.47;56946.53;5010218;28;20052;-83
2023/10/01 04:19:24;;;;;;;7.93;4.22;;;13.00;99.90;;;-144.05;73.43;56929.53;5038673;28;20097;-83
2023/10/01 04:21:53;;;;;;;8.45;4.45;;;15.50;99.90;;;-144.05;73.15;56959.28;5049602;28;20048;-82
2023/10/01 04:24:21;;;;;;;6.53;4.07;;;13.10;99.90;;;-144.05;73.12;56942.28;5049134;28;20022;-82
2023/10/01 04:26:48;;;;;;;7.32;4.10;;;;;;;-144.05;73.45;56921.06;5047622;28;20449;-84
2023/10/01 04:29:16;;;;;;;7.20;3.65;;;;;;;-144.05;73.12;56931.66;5049051;28;20065;-82
2023/10/01 04:31:48;;;;;;;10.00;4.38;;;9.70;99.90;;;-144.05;72.42;56942.28;5049718;28;20018;-84
2023/10/01 04:34:17;;;;;;;12.48;4.53;;;9.30;99.90;;;-144.05;71.88;56925.28;5035152;28;20025;-82
2023/10/01 04:36:53;;;;;;;7.90;3.70;;;9.80;99.90;;;-144.05;71.87;56921.06;5014039;28;20053;-81
2023/10/01 04:39:20;;;;;;;9.77;3.78;;;;;;;-144.05;71.76;56950.78;5010881;28;20026;-81
2023/10/01 04:41:46;;;;;;;13.20;3.63;;;15.90;99.90;;;-144.05;71.17;56933.78;5013881;28;20040;-81
2023/10/01 04:44:19;;;;;;;10.55;4.05;;;13.40;99.90;;;-144.05;70.99;56942.28;5031496;28;20025;-81
2023/10/01 04:46:46;;;;;;;8.63;3.80;;;;;;;-144.05;71.19;56938.03;5027565;28;20092;-82
2023/10/01 04:49:27;;;;;;;6.18;3.60;;;;;;;-144.05;70.90;56935.91;5031807;28;20026;-82
2023/10/01 04:51:55;;;;;;;8.90;3.88;;;16.00;99.90;;;-144.05;70.58;56938.03;5011496;28;20047;-81
2023/10/01 04:54:22;;;;;;;8.88;3.72;;;;;;;-144.05;70.67;56925.28;5014135;28;20071;-82
2023/10/01 04:56:49;;;;;;;8.88;3.95;;;13.60;99.90;;;-144.05;70.72;56929.53;5031560;28;20052;-83
2023/10/01 04:59:18;;;;;;;5.97;3.58;;;16.20;99.90;;;-144.05;70.42;56963.53;5013641;28;20022;-82
2023/10/01 05:01:47;;;;;;;8.85;3.75;;;;;;;-144.05;70.01;56946.53;5013790;28;20120;-82
2023/10/01 05:04:14;;;;;;;9.20;4.35;;;;;;;-144.05;69.98;56955.03;5032936;28;20032;-81
2023/10/01 05:06:59;;;;;;;8.02;3.75;;;16.20;99.90;;;-144.05;69.74;56935.91;5015128;28;20029;-83
2023/10/01 05:09:29;;;;;;;8.18;4.00;;;;;;;-144.05;70.36;56940.16;5031984;28;20086;-82
2023/10/01 05:11:55;;;;;;;8.98;3.45;;;;;;;-144.05;69.78;56946.53;5015157;28;20022;-82
2023/10/01 05:14:23;;;;;;;7.75;3.05;;;10.30;99.90;;;-144.05;69.73;56948.66;5030763;28;20017;-83
2023/10/01 05:16:49;;;;;;;6.72;3.63;;;;;;;-144.05;69.20;56948.66;5032467;28;20021;-83
2023/10/01 05:19:23;;;;;;;7.63;3.70;;;13.70;99.90;;;-144.05;69.50;56931.66;5032324;28;20064;-83
2023/10/01 05:21:56;;;;;;;10.55;4.10;;;9.90;99.90;;;-144.05;68.98;56950.78;5015459;28;20025;-82
2023/10/01 05:24:34;;;;;;;10.07;3.92;;;10.30;99.90;;;-144.05;69.30;56931.66;5033377;28;20082;-82
2023/10/01 05:27:18;;;;;;;6.68;3.75;;;13.70;99.90;;;-144.05;69.49;56963.53;5036802;28;20031;-82
2023/10/01 05:29:45;;;;;;;10.18;4.28;;;;;;;-144.05;69.65;56955.03;5019595;28;20089;-82
2023/10/01 05:32:12;;;;;;;9.25;3.47;;;10.50;99.90;;;-144.05;69.55;56955.03;5019176;28;20040;-83
2023/10/01 05:34:41;;;;;;;8.65;3.95;;;10.40;99.90;;;-144.05;68.75;56950.78;5035932;28;20045;-82
2023/10/01 05:37:09;;;;;;;10.00;4.53;;;;;;;-144.05;68.71;56948.66;5035295;28;20029;-83
2023/10/01 05:42:25;;;;;;;10.05;3.58;;;10.30;99.90;;;-144.05;68.35;56933.78;5036737;28;20041;-83
2023/10/01 05:44:59;;;;;;;10.77;4.28;;;13.70;99.90;;;-144.05;68.83;56938.03;5036699;28;20018;-83
2023/10/01 05:50:22;;;;;;;;;;;13.70;99.90;;;-144.05;68.54;56938.03;5019072;28;20029;-81
2023/10/01 05:52:50;;;;;;;11.75;4.53;;;;;;;-144.05;68.56;56967.78;5019071;28;19909;-82
2023/10/01 05:55:16;;;;;;;8.85;3.80;;;10.20;99.90;;;-144.05;68.89;56955.03;5055730;23;20052;-81
2023/10/01 05:57:43;;;;;;;10.38;3.88;;;10.10;99.90;;;-144.05;69.14;56916.81;5037288;28;20041;-83
2023/10/01 06:00:18;;;;;;;10.35;4.53;;;16.00;99.90;;;-144.05;69.06;56927.41;5036889;28;20072;-84
2023/10/01 06:02:51;;;;;;;7.68;4.45;;;13.60;99.90;;;-144.05;69.00;56933.78;5052692;28;20029;-81
2023/10/01 06:05:33;;;;;;;9.60;5.05;;;;;;;-144.05;68.95;56957.16;5044845;28;20402;-82
2023/10/01 06:08:14;;;;;;;8.38;4.05;;;9.70;99.90;;;-144.05;68.93;56950.78;5015700;28;20030;-81
2023/10/01 06:11:05;;;;;;;8.02;4.25;;;10.00;99.90;;;-144.05;69.16;56935.91;5018244;28;20117;-81
2023/10/01 06:13:48;;;;;;;8.40;3.83;;;10.10;99.90;;;-144.05;69.25;56961.41;5016813;28;20029;-82
2023/10/01 06:16:22;;;;;;;7.18;4.00;;;;;;;-144.05;69.16;56963.53;5018404;28;20022;-80
2023/10/01 06:18:51;;;;;;;8.80;4.20;;;13.50;99.90;;;-144.05;68.92;56948.66;5017008;28;20022;-82
2023/10/01 06:21:23;;;;;;;8.20;4.43;;;10.40;99.90;;;-144.05;69.36;56944.41;5023950;28;20037;-82
2023/10/01 06:23:50;;;;;;;9.45;4.22;;;10.30;99.90;;;-144.05;68.73;56916.81;5011372;28;20116;-84
2023/10/01 06:26:37;;;;;;;10.02;4.03;;;10.50;99.90;;;-144.05;68.37;56952.91;5022529;28;20029;-81
2023/10/01 06:29:05;;;;;;;9.75;4.75;;;15.70;99.90;;;-144.05;67.67;56959.28;5019288;28;20026;-81
2023/10/01 06:31:47;;;;;;;11.88;4.05;;;10.20;99.90;;;-144.05;67.50;56918.94;5021682;28;20093;-79
2023/10/01 06:34:15;;;;;;;12.35;4.40;;;11.00;99.90;;;-144.05;66.53;56944.41;5019378;28;20040;-82
2023/10/01 06:36:43;;;;;;;7.80;4.35;;;16.20;99.90;;;-144.05;65.33;56952.91;5018817;28;20026;-84
2023/10/01 06:39:19;;;;;;;10.52;4.10;;;16.00;99.90;;;-144.05;64.70;56944.41;5017566;28;20037;-80
2023/10/01 06:41:48;;;;;;;11.30;4.45;;;;;;;-144.05;63.49;56904.06;5020653;28;20030;-82
2023/10/01 06:44:15;;;;;;;14.27;5.07;;;11.80;99.90;;;-144.05;63.23;56940.16;5029336;28;20026;-83
2023/10/01 06:46:41;;;;;;;9.25;4.50;;;16.50;99.90;;;-144.05;62.31;56927.41;5019533;28;20125;-83
2023/10/01 06:49:10;;;;;;;9.52;4.47;;;12.00;99.90;;;-144.05;61.68;56921.06;5020465;28;20049;-80
2023/10/01 06:51:43;;;;;;;9.45;4.60;;;11.60;99.90;;;-144.05;61.86;56938.03;5019649;28;20026;-80
2023/10/01 06:54:12;;;;;;;13.38;4.60;;;12.20;99.90;;;-144.05;60.84;56940.16;5021990;28;20031;-83
2023/10/01 06:56:47;;;;;;;8.02;4.75;;;12.20;99.90;;;-144.05;60.60;56929.53;5019101;28;20095;-83
2023/10/01 06:59:14;;;;;;;9.93;4.25;;;;;;;-144.05;59.72;56946.53;5026233;28;20030;-83
2023/10/01 07:01:56;;;;;;;8.93;4.25;;;12.60;99.90;;;-144.05;58.68;56940.16;5038297;28;20044;-82
2023/10/01 07:04:23;;;;;;;11.15;4.90;;;16.10;99.90;;;-144.05;58.19;56944.41;5029967;28;20085;-83
2023/10/01 07:06:53;;;;;;;10.75;4.60;;;13.10;99.90;;;-144.05;58.28;56955.03;5019531;28;20364;-81
2023/10/01 07:09:38;;;;;;;11.52;4.38;;;17.60;99.90;;;-144.05;58.05;56927.41;5018071;28;20022;-84
2023/10/01 07:12:06;;;;;;;13.52;5.75;;;17.40;99.90;;;-144.05;57.92;56972.03;5013514;28;20507;-81
2023/10/01 07:14:38;;;;;;;9.23;4.75;;;17.80;99.90;;;-144.05;56.86;56965.66;5017674;28;20034;-85
2023/10/01 07:17:08;;;;;;;11.60;5.53;;;16.80;99.90;;;-144.05;57.24;56938.03;5018821;28;20053;-83
2023/10/01 07:19:36;;;;;;;11.82;5.00;;;18.20;99.90;;;-144.05;57.17;56938.03;5033792;28;20079;-82
2023/10/01 07:22:06;;;;;;;12.65;5.88;;;;;;;-144.05;56.42;56955.03;5018898;28;20030;-83
2023/10/01 07:24:33;;;;;;;14.40;5.28;;;17.40;99.90;;;-144.05;54.73;56929.53;5017931;28;20057;-82
2023/10/01 07:27:03;;;;;;;9.57;5.15;;;13.90;99.90;;;-144.05;55.80;56933.78;5021514;28;20060;-83
2023/10/01 07:29:35;;;;;;;11.00;5.50;;;18.70;99.90;;;-144.05;55.99;56923.19;5017108;28;20022;-81
2023/10/01 07:32:07;;;;;;;12.38;5.05;;;18.90;99.90;;;-144.05;55.39;56957.16;5025103;28;20505;-81
2023/10/01 07:34:39;;;;;;;11.65;5.63;;;14.20;99.90;;;-144.05;55.43;56948.66;5022235;28;20053;-83
2023/10/01 07:37:08;;;;;;;13.77;5.57;;;;;;;-144.05;54.75;56952.91;5024768;28;20037;-83
2023/10/01 07:39:37;;;;;;;16.17;5.55;;;14.50;99.90;;;-144.05;54.83;56957.16;5028195;28;20032;-83
2023/10/01 07:42:10;;;;;;;13.63;5.40;;;;;;;-144.05;54.70;56952.91;5027100;28;20021;-81
2023/10/01 07:44:37;;;;;;;10.88;5.30;;;;;;;-144.05;54.63;56942.28;5017684;28;20034;-81
2023/10/01 07:47:03;;;;;;;11.73;5.65;;;14.90;99.90;;;-144.05;53.38;56957.16;5018806;28;20086;-81
2023/10/01 07:49:49;;;;;;;15.45;5.97;;;15.00;99.90;;;-144.05;54.05;56957.16;5018783;28;20049;-83
2023/10/01 07:52:17;;;;;;;13.77;5.80;;;18.40;99.90;;;-144.05;53.17;56952.91;5019142;28;20029;-82
2023/10/01 07:54:48;;;;;;;12.63;6.15;;;14.80;99.90;;;-144.05;53.51;56957.16;5018840;28;20045;-80
2023/10/01 07:57:27;;;;;;;12.95;5.40;;;20.00;99.90;;;-144.05;53.04;56972.03;5018521;28;20439;-82
2023/10/01 08:00:00;;;;;;;14.07;6.30;;;20.20;99.90;;;-144.05;53.30;56967.78;5008501;28;20546;-81
2023/10/01 08:02:28;;;;;;;17.40;6.43;;;;;;;-144.05;52.68;56946.53;5013721;28;20390;-81
2023/10/01 08:04:58;;;;;;;11.48;5.47;;;15.30;99.90;;;-144.05;52.70;56959.28;5030566;28;20045;-80
2023/10/01 08:07:39;;;;;;;14.40;5.72;;;18.80;99.90;;;-144.05;51.86;56980.53;5014687;28;20026;-83
2023/10/01 08:10:16;;;;;;;11.32;5.80;;;18.80;99.90;;;-144.05;52.50;56976.28;5021249;28;20093;-81
2023/10/01 08:15:29;;;;;;;11.07;5.53;;;15.70;99.90;;;-144.05;51.19;56969.91;5020443;28;20064;-82
2023/10/01 08:21:02;;;;;;;13.63;6.32;;;15.60;99.90;;;-144.05;51.49;56965.66;5021079;28;20086;-82
2023/10/01 08:23:33;;;;;;;14.95;7.10;;;19.30;99.90;;;-144.05;51.57;56969.91;5019495;28;20344;-81
2023/10/01 08:28:57;;;;;;;10.20;5.53;;;16.30;99.90;;;-144.05;50.79;56965.66;5014580;28;20061;-80
2023/10/01 08:34:23;;;;;;;13.43;6.47;;;20.70;99.90;;;-144.05;51.45;56982.66;5023941;28;20038;-81
2023/10/01 08:36:55;;;;;;;15.23;6.18;;;20.80;99.90;;;-144.05;51.33;56980.53;5018219;28;20053;-79
2023/10/01 08:39:47;;;;;;;14.73;6.70;;;16.20;99.90;;;-144.05;50.54;56978.41;5021112;28;20037;-81
2023/10/01 08:42:17;;;;;;;11.23;5.88;;;16.50;99.90;;;-144.05;51.25;56989.00;5020894;28;20064;-79
2023/10/01 08:45:06;;;;;;;15.05;6.47;;;20.70;99.90;;;-144.05;50.51;56959.28;5018137;28;20040;-79
2023/10/01 08:47:36;;;;;;;12.07;6.30;;;17.20;99.90;;;-144.05;50.74;56974.16;5027278;28;20121;-79
2023/10/01 08:50:19;;;;;;;14.35;6.35;;;21.50;99.90;;;-144.05;50.45;56972.03;5017132;28;20193;-77
2023/10/01 08:52:57;;;;;;;12.70;6.32;;;21.70;99.90;;;-144.05;49.77;56976.28;5029046;28;20113;-83
2023/10/01 08:55:39;;;;;;;13.00;6.50;;;21.60;99.90;;;-144.05;49.62;56972.03;5026967;28;20033;-83
2023/10/01 08:58:15;;;;;;;12.10;6.28;;;17.10;99.90;;;-144.05;48.66;56995.38;5021487;28;20076;-82
2023/10/01 09:00:48;;;;;;;15.18;6.30;;;22.00;99.90;;;-144.05;49.37;56969.91;5023559;28;20033;-81
2023/10/01 09:03:30;;;;;;;12.00;5.97;;;17.30;99.90;;;-144.05;48.76;56993.25;5023025;28;20069;-84
2023/10/01 09:06:06;;;;;;;13.38;6.20;;;20.80;99.90;;;-144.05;49.18;56995.38;5021991;28;20022;-82
2023/10/01 09:08:45;;;;;;;12.52;5.82;;;17.60;99.90;;;-144.05;48.66;56999.63;5019751;28;20462;-82
2023/10/01 09:11:17;;;;;;;13.70;6.25;;;18.50;99.90;;;-144.05;47.75;56984.78;5021185;28;20022;-82
2023/10/01 09:14:27;;;;;;;15.65;6.95;;;17.60;99.90;;;-144.05;47.77;56986.91;5022020;28;20494;-84
2023/10/01 09:16:57;;;;;;;11.15;5.50;;;17.90;99.90;;;-144.05;47.70;57008.13;5014989;28;20026;-83
2023/10/01 09:19:33;;;;;;;13.63;6.43;;;18.30;99.90;;;-144.05;46.58;57014.50;5023264;28;20061;-81
2023/10/01 09:22:22;;;;;;;12.90;7.05;;;21.60;99.90;;;-144.05;46.49;57012.38;5029828;28;20021;-79
2023/10/01 09:25:01;;;;;;;13.30;6.30;;;18.10;99.90;;;-144.05;46.83;56984.78;5026770;28;20022;-77
2023/10/01 09:27:30;;;;;;;13.70;7.03;;;18.90;99.90;;;-144.05;46.31;57042.13;5032657;28;20021;-78
2023/10/01 09:30:26;;;;;;;14.02;6.70;;;18.60;99.90;;;-144.05;46.18;57001.75;5033789;28;20025;-77
2023/10/01 09:32:54;;;;;;;14.75;6.70;;;23.40;99.90;;;-144.05;46.02;57014.50;5037507;28;20030;-79
2023/10/01 09:35:49;;;;;;;16.02;6.97;;;18.30;99.90;;;-144.05;47.30;56993.25;5035296;28;20026;-79
2023/10/01 09:38:26;;;;;;;16.73;6.50;;;23.00;99.90;;;-144.05;47.19;56986.91;5028763;28;20089;-82
2023/10/01 09:40:54;;;;;;;13.52;6.50;;;22.80;99.90;;;-144.05;47.29;57012.38;5014019;28;20032;-81
2023/10/01 09:43:24;;;;;;;15.75;6.45;;;18.00;99.90;;;-144.05;48.14;57006.00;5033035;28;20026;-81
2023/10/01 09:45:53;;;;;;;15.60;6.82;;;18.40;99.90;;;-144.05;46.90;57008.13;5020209;28;20032;-82
2023/10/01 09:48:33;;;;;;;13.50;6.55;;;18.30;99.90;;;-144.05;47.67;57010.25;5019699;28;20022;-81
2023/10/01 09:51:18;;;;;;;17.92;7.10;;;18.50;99.90;;;-144.05;46.42;57001.75;5012752;28;20034;-82
2023/10/01 09:54:01;;;;;;;13.25;6.72;;;21.70;99.90;;;-144.05;48.08;56972.03;5018251;28;20497;-81
2023/10/01 09:56:31;;;;;;;14.93;7.10;;;;;;;-144.05;46.88;56989.00;5036810;28;20037;-82
2023/10/01 09:59:03;;;;;;;14.27;6.43;;;18.30;99.90;;;-144.05;46.59;57012.38;5019209;28;20022;-81
2023/10/01 10:01:35;;;;;;;12.65;5.95;;;18.40;99.90;;;-144.05;47.17;56989.00;5025980;28;20036;-81
2023/10/01 10:04:08;;;;;;;14.10;6.47;;;18.50;99.90;;;-144.05;47.29;57008.13;5019756;28;20034;-79
2023/10/01 10:06:38;;;;;;;15.70;6.75;;;18.70;99.90;;;-144.05;47.67;57010.25;5021758;28;20022;-81
2023/10/01 10:09:10;;;;;;;13.38;6.10;;;18.40;99.90;;;-144.05;46.44;57016.63;5020480;28;20014;-81
2023/10/01 10:11:45;;;;;;;16.38;6.18;;;19.20;99.90;;;-144.05;45.66;57018.75;5021679;28;20025;-81
2023/10/01 10:14:25;;;;;;;13.70;6.23;;;19.30;99.90;;;-144.05;44.96;57027.25;5038257;28;20044;-81
2023/10/01 10:17:25;;;;;;;16.58;6.15;;;22.60;99.90;;;-144.05;45.46;57006.00;5018954;28;20101;-79
2023/10/01 10:20:16;;;;;;;12.27;6.30;;;19.40;99.90;;;-144.05;45.22;57029.38;5015785;28;20050;-80
2023/10/01 10:23:16;;;;;;;15.70;6.28;;;24.10;99.90;;;-144.05;44.94;57040.00;5006507;28;20038;-81
2023/10/01 10:25:46;;;;;;;15.60;5.68;;;19.40;99.90;;;-144.05;44.87;57016.63;5027523;28;20162;-81
2023/10/01 10:28:25;;;;;;;12.85;6.47;;;19.90;99.90;;;-144.05;44.41;57014.50;5042350;28;20046;-80
2023/10/01 10:31:30;;;;;;;15.85;6.30;;;24.50;99.90;;;-144.05;44.98;57016.63;5028045;28;20033;-81
2023/10/01 10:34:25;;;;;;;13.93;7.00;;;23.90;99.90;;;-144.05;45.33;57037.88;5019109;28;20029;-82
2023/10/01 10:36:54;;;;;;;14.27;6.43;;;24.30;99.90;;;-144.05;46.02;57027.25;5008045;28;20046;-82
2023/10/01 10:40:02;;;;;;;14.75;6.43;;;19.60;99.90;;;-144.05;45.72;57025.13;5015302;28;20030;-78
2023/10/01 10:42:28;;;;;;;14.18;6.63;;;24.00;99.90;;;-144.05;46.33;57031.50;5017582;28;20117;-79
2023/10/01 10:45:24;;;;;;;12.75;6.30;;;24.10;99.90;;;-144.05;45.69;57042.13;5019506;28;20076;-80
2023/10/01 10:48:03;;;;;;;12.40;5.80;;;23.50;99.90;;;-144.05;45.28;57001.75;5017342;28;20076;-78
2023/10/01 10:50:53;;;;;;;14.65;6.20;;;22.90;99.90;;;-144.05;45.72;57042.13;5018733;28;20049;-82
2023/10/01 10:53:29;;;;;;;13.90;6.30;;;23.20;99.90;;;-144.05;44.62;57029.38;5018724;28;20088;-80
2023/10/01 10:56:04;;;;;;;14.38;7.05;;;20.20;99.90;;;-144.05;44.04;57063.34;5018949;28;20029;-82
2023/10/01 10:58:41;;;;;;;14.30;6.38;;;23.70;99.90;;;-144.05;43.99;57059.09;5018647;28;20060;-82
2023/10/01 11:01:18;;;;;;;15.85;6.75;;;25.20;99.90;;;-144.05;44.37;57044.25;5019742;28;20080;-82
2023/10/01 11:03:58;;;;;;;15.57;6.10;;;23.60;99.90;;;-144.05;44.20;57046.38;5018257;28;20434;-81
2023/10/01 11:06:42;;;;;;;12.45;5.90;;;25.20;99.90;;;-144.05;43.67;57052.75;5016839;28;20019;-82
2023/10/01 11:09:30;;;;;;;16.30;6.57;;;23.20;99.90;;;-144.05;45.13;57059.09;5034121;28;20040;-80
2023/10/01 11:12:21;;;;;;;15.07;6.57;;;23.00;99.90;;;-144.05;45.09;57076.09;5012987;28;20431;-82
2023/10/01 11:17:49;;;;;;;13.63;6.18;;;25.00;99.90;;;-144.05;44.41;57056.97;5025845;28;20032;-80
2023/10/01 11:20:22;;;;;;;17.58;5.95;;;20.10;99.90;;;-144.05;44.31;57020.88;5047024;28;20053;-76
2023/10/01 11:22:54;;;;;;;12.75;6.45;;;20.40;99.90;;;-144.05;44.04;57048.50;5025429;28;20371;-78